createdAt,value
2018-08-22T00:00:41.174Z,21.10
2018-08-22T00:03:09.404Z,21.10
2018-08-22T00:05:37.654Z,21.10
2018-08-22T00:08:06.202Z,21.00
2018-08-22T00:10:34.480Z,21.00
2018-08-22T00:13:02.749Z,21.00
2018-08-22T00:15:31.007Z,21.00
2018-08-22T00:17:59.249Z,21.00
2018-08-22T00:20:27.486Z,21.00
2018-08-22T00:22:55.763Z,21.00
2018-08-22T00:25:24.075Z,21.00
2018-08-22T00:27:52.296Z,20.90
2018-08-22T00:30:20.529Z,20.90
2018-08-22T00:32:48.794Z,20.90
2018-08-22T00:35:17.015Z,20.90
2018-08-22T00:37:45.246Z,20.90
2018-08-22T00:40:13.526Z,20.80
2018-08-22T00:42:41.743Z,20.80
2018-08-22T00:45:10.007Z,20.70
2018-08-22T00:47:38.287Z,20.70
2018-08-22T00:50:06.532Z,20.70
2018-08-22T00:52:34.754Z,20.70
2018-08-22T00:55:03.164Z,20.60
2018-08-22T00:57:31.383Z,20.60
2018-08-22T00:59:59.709Z,20.60
2018-08-22T01:02:27.943Z,20.60
2018-08-22T01:04:56.195Z,20.50
2018-08-22T01:07:24.477Z,20.60
2018-08-22T01:09:52.720Z,20.60
2018-08-22T01:12:20.956Z,20.50
2018-08-22T01:14:49.291Z,20.50
2018-08-22T01:17:17.511Z,20.40
2018-08-22T01:19:45.749Z,20.40
2018-08-22T01:22:13.975Z,20.40
2018-08-22T01:24:42.243Z,20.40
2018-08-22T01:27:14.738Z,20.40
2018-08-22T01:29:42.947Z,20.40
2018-08-22T01:32:11.211Z,20.30
2018-08-22T01:34:39.429Z,20.30
2018-08-22T01:37:07.650Z,20.30
2018-08-22T01:39:35.850Z,20.30
2018-08-22T01:42:04.103Z,20.20
2018-08-22T01:44:32.328Z,20.20
2018-08-22T01:47:00.555Z,20.20
2018-08-22T01:49:28.827Z,20.10
2018-08-22T01:51:57.046Z,20.10
2018-08-22T01:54:25.490Z,20.00
2018-08-22T01:56:53.719Z,20.00
2018-08-22T01:59:21.974Z,20.00
2018-08-22T02:01:50.214Z,20.00
2018-08-22T02:04:18.455Z,20.00
2018-08-22T02:06:46.702Z,19.90
2018-08-22T02:09:14.942Z,19.90
2018-08-22T02:11:43.183Z,19.90
2018-08-22T02:14:12.078Z,19.90
2018-08-22T02:16:40.412Z,19.90
2018-08-22T02:19:09.582Z,19.90
2018-08-22T02:21:44.210Z,19.90
2018-08-22T02:24:12.613Z,19.90
2018-08-22T02:26:40.903Z,19.80
2018-08-22T02:29:09.131Z,19.80
2018-08-22T02:31:37.378Z,19.80
2018-08-22T02:34:05.655Z,19.80
2018-08-22T02:36:33.923Z,19.80
2018-08-22T02:39:02.168Z,19.70
2018-08-22T02:41:30.415Z,19.70
2018-08-22T02:43:58.668Z,19.70
2018-08-22T02:46:26.896Z,19.70
2018-08-22T02:48:56.223Z,19.70
2018-08-22T02:51:27.895Z,19.70
2018-08-22T02:53:56.218Z,19.70
2018-08-22T02:56:24.483Z,19.70
2018-08-22T02:58:52.711Z,19.70
2018-08-22T03:01:20.962Z,19.70
2018-08-22T03:03:49.171Z,19.70
2018-08-22T03:06:17.394Z,19.60
2018-08-22T03:08:45.648Z,19.60
2018-08-22T03:11:13.847Z,19.60
2018-08-22T03:13:42.074Z,19.60
2018-08-22T03:16:10.354Z,19.60
2018-08-22T03:18:38.543Z,19.60
2018-08-22T03:21:06.767Z,19.60
2018-08-22T03:23:35.179Z,19.60
2018-08-22T03:26:03.444Z,19.60
2018-08-22T03:28:31.636Z,19.70
2018-08-22T03:30:59.864Z,19.70
2018-08-22T03:33:28.084Z,19.70
2018-08-22T03:35:56.331Z,19.70
2018-08-22T03:38:24.546Z,19.70
2018-08-22T03:40:52.766Z,19.60
2018-08-22T03:43:21.047Z,19.50
2018-08-22T03:45:49.268Z,19.50
2018-08-22T03:48:17.683Z,19.50
2018-08-22T03:50:45.950Z,19.50
2018-08-22T03:53:14.211Z,19.40
2018-08-22T03:55:42.392Z,19.40
2018-08-22T03:58:10.735Z,19.30
2018-08-22T04:00:38.942Z,19.30
2018-08-22T04:03:07.159Z,19.30
2018-08-22T04:05:35.391Z,19.30
2018-08-22T04:08:03.595Z,19.30
2018-08-22T04:10:31.823Z,19.30
2018-08-22T04:13:00.011Z,19.30
2018-08-22T04:15:28.335Z,19.30
2018-08-22T04:17:56.548Z,19.30
2018-08-22T04:20:24.759Z,19.30
2018-08-22T04:22:52.978Z,19.30
2018-08-22T04:25:21.172Z,19.30
2018-08-22T04:27:49.391Z,19.30
2018-08-22T04:30:17.600Z,19.20
2018-08-22T04:32:45.819Z,19.20
2018-08-22T04:35:14.052Z,19.20
2018-08-22T04:37:42.270Z,19.20
2018-08-22T04:40:10.551Z,19.20
2018-08-22T04:42:38.779Z,19.20
2018-08-22T04:45:07.032Z,19.10
2018-08-22T04:47:35.259Z,19.20
2018-08-22T04:50:03.503Z,19.20
2018-08-22T04:52:31.727Z,19.20
2018-08-22T04:54:59.940Z,19.20
2018-08-22T04:57:28.171Z,19.10
2018-08-22T04:59:56.386Z,19.10
2018-08-22T05:02:24.634Z,19.20
2018-08-22T05:04:52.840Z,19.20
2018-08-22T05:07:21.095Z,19.20
2018-08-22T05:09:49.295Z,19.20
2018-08-22T05:12:17.527Z,19.20
2018-08-22T05:14:45.753Z,19.20
2018-08-22T05:17:13.982Z,19.20
2018-08-22T05:19:42.166Z,19.20
2018-08-22T05:22:10.387Z,19.30
2018-08-22T05:24:38.740Z,19.30
2018-08-22T05:27:06.940Z,19.40
2018-08-22T05:29:35.228Z,19.40
2018-08-22T05:32:03.415Z,19.50
2018-08-22T05:34:31.649Z,19.50
2018-08-22T05:36:59.926Z,19.60
2018-08-22T05:39:28.120Z,19.70
2018-08-22T05:41:56.391Z,19.80
2018-08-22T05:44:24.678Z,19.80
2018-08-22T05:46:52.896Z,19.90
2018-08-22T05:49:21.112Z,19.90
2018-08-22T05:51:50.291Z,19.90
2018-08-22T05:54:18.547Z,19.90
2018-08-22T05:56:46.791Z,20.00
2018-08-22T05:59:15.089Z,20.00
2018-08-22T06:01:43.348Z,20.10
2018-08-22T06:04:11.659Z,20.10
2018-08-22T06:06:39.887Z,20.10
2018-08-22T06:09:09.784Z,20.10
2018-08-22T06:11:38.037Z,20.10
2018-08-22T06:14:06.559Z,20.10
2018-08-22T06:16:34.749Z,20.10
2018-08-22T06:19:02.975Z,20.10
2018-08-22T06:21:31.182Z,20.10
2018-08-22T06:23:59.375Z,20.10
2018-08-22T06:26:27.832Z,20.10
2018-08-22T06:28:56.082Z,20.20
2018-08-22T06:31:24.321Z,20.20
2018-08-22T06:33:52.531Z,20.30
2018-08-22T06:36:20.818Z,20.40
2018-08-22T06:38:48.993Z,20.50
2018-08-22T06:41:17.203Z,20.50
2018-08-22T06:43:45.591Z,20.60
2018-08-22T06:46:14.155Z,20.70
2018-08-22T06:48:42.334Z,20.70
2018-08-22T06:51:10.564Z,20.80
2018-08-22T06:53:38.812Z,20.80
2018-08-22T06:56:07.060Z,20.90
2018-08-22T06:58:35.280Z,21.00
2018-08-22T07:01:03.467Z,21.10
2018-08-22T07:03:31.891Z,21.20
2018-08-22T07:06:00.090Z,21.30
2018-08-22T07:08:28.348Z,21.30
2018-08-22T07:10:56.543Z,21.40
2018-08-22T07:13:24.928Z,21.40
2018-08-22T07:15:53.183Z,21.50
2018-08-22T07:18:21.398Z,21.60
2018-08-22T07:20:49.683Z,21.70
2018-08-22T07:23:17.996Z,21.80
2018-08-22T07:25:46.263Z,21.90
2018-08-22T07:28:14.488Z,21.90
2018-08-22T07:30:42.703Z,22.00
2018-08-22T07:33:10.911Z,22.10
2018-08-22T07:35:39.188Z,22.10
2018-08-22T07:38:07.372Z,22.20
2018-08-22T07:40:35.743Z,22.30
2018-08-22T07:43:03.978Z,22.40
2018-08-22T07:45:32.866Z,22.40
2018-08-22T07:48:01.084Z,22.40
2018-08-22T07:50:29.287Z,22.50
2018-08-22T07:53:02.839Z,22.50
2018-08-22T07:55:33.929Z,22.60
2018-08-22T07:58:02.199Z,22.60
2018-08-22T08:00:30.384Z,22.60
2018-08-22T08:02:58.846Z,22.60
2018-08-22T08:05:27.224Z,22.70
2018-08-22T08:07:55.394Z,22.80
2018-08-22T08:10:29.014Z,22.90
2018-08-22T08:12:57.219Z,23.00
2018-08-22T08:15:25.455Z,23.10
2018-08-22T08:17:53.762Z,23.20
2018-08-22T08:20:22.220Z,23.30
2018-08-22T08:22:50.485Z,23.40
2018-08-22T08:25:18.884Z,23.40
2018-08-22T08:27:47.152Z,23.50
2018-08-22T08:30:15.354Z,23.60
2018-08-22T08:32:43.911Z,23.60
2018-08-22T08:35:12.305Z,23.70
2018-08-22T08:37:40.519Z,23.70
2018-08-22T08:40:08.785Z,23.80
2018-08-22T08:42:36.988Z,23.80
2018-08-22T08:45:07.891Z,23.90
2018-08-22T08:47:36.104Z,24.10
2018-08-22T08:50:04.343Z,24.10
2018-08-22T08:52:32.603Z,24.20
2018-08-22T08:55:00.842Z,24.30
2018-08-22T08:57:29.120Z,24.30
2018-08-22T08:59:57.280Z,24.40
2018-08-22T09:02:25.466Z,24.40
2018-08-22T09:04:53.775Z,24.50
2018-08-22T09:07:22.119Z,24.50
2018-08-22T09:09:50.419Z,24.60
2018-08-22T09:12:18.821Z,24.70
2018-08-22T09:14:46.947Z,24.70
2018-08-22T09:17:15.222Z,24.70
2018-08-22T09:19:43.460Z,24.80
2018-08-22T09:22:11.702Z,24.80
2018-08-22T09:24:39.959Z,24.90
2018-08-22T09:27:08.166Z,25.00
2018-08-22T09:29:36.496Z,25.10
2018-08-22T09:32:04.634Z,25.20
2018-08-22T09:34:32.890Z,25.20
2018-08-22T09:37:01.150Z,25.30
2018-08-22T09:39:29.460Z,25.30
2018-08-22T09:41:57.628Z,25.40
2018-08-22T09:44:25.865Z,25.50
2018-08-22T09:46:54.367Z,25.50
2018-08-22T09:49:22.686Z,25.60
2018-08-22T09:51:50.900Z,25.70
2018-08-22T09:54:19.127Z,25.80
2018-08-22T09:56:47.376Z,25.90
2018-08-22T09:59:15.628Z,26.00
2018-08-22T10:01:44.972Z,26.20
2018-08-22T10:04:13.274Z,26.20
2018-08-22T10:06:44.749Z,26.20
2018-08-22T10:09:14.914Z,26.30
2018-08-22T10:11:43.256Z,26.40
2018-08-22T10:14:11.775Z,26.40
2018-08-22T10:16:40.048Z,26.40
2018-08-22T10:19:08.459Z,26.40
2018-08-22T10:21:36.718Z,26.50
2018-08-22T10:24:04.973Z,26.60
2018-08-22T10:26:33.237Z,26.60
2018-08-22T10:29:01.421Z,26.70
2018-08-22T10:31:29.633Z,26.80
2018-08-22T10:33:57.960Z,26.80
2018-08-22T10:36:26.190Z,26.90
2018-08-22T10:38:54.411Z,27.00
2018-08-22T10:41:22.644Z,27.00
2018-08-22T10:43:50.850Z,27.10
2018-08-22T10:46:19.083Z,27.10
2018-08-22T10:48:47.291Z,27.20
2018-08-22T10:51:15.523Z,27.30
2018-08-22T10:53:43.747Z,27.30
2018-08-22T10:56:11.975Z,27.30
2018-08-22T10:58:40.171Z,27.50
2018-08-22T11:01:08.394Z,27.70
2018-08-22T11:03:36.804Z,27.70
2018-08-22T11:06:05.271Z,27.90
2018-08-22T11:08:33.488Z,27.90
2018-08-22T11:11:01.721Z,28.00
2018-08-22T11:13:30.888Z,28.10
2018-08-22T11:15:59.421Z,28.20
2018-08-22T11:18:28.240Z,28.30
2018-08-22T11:21:08.161Z,28.50
2018-08-22T11:23:47.701Z,28.60
2018-08-22T11:26:27.311Z,28.70
2018-08-22T11:29:07.119Z,28.90
2018-08-22T11:31:46.949Z,28.90
2018-08-22T11:34:26.830Z,29.00
2018-08-22T11:37:14.111Z,29.10
2018-08-22T11:39:44.706Z,29.10
2018-08-22T11:42:13.205Z,29.20
2018-08-22T11:44:41.716Z,29.20
2018-08-22T11:47:10.792Z,29.40
2018-08-22T11:49:39.070Z,29.60
2018-08-22T11:52:07.542Z,29.80
2018-08-22T11:54:36.246Z,29.90
2018-08-22T11:57:04.940Z,30.00
2018-08-22T11:59:33.519Z,30.20
2018-08-22T12:02:02.587Z,30.20
2018-08-22T12:04:30.859Z,30.20
2018-08-22T12:06:59.470Z,30.30
2018-08-22T12:09:28.523Z,30.40
2018-08-22T12:11:56.744Z,30.50
2018-08-22T12:14:24.952Z,30.60
2018-08-22T12:16:53.347Z,30.70
2018-08-22T12:19:21.900Z,30.80
2018-08-22T12:21:50.170Z,30.80
2018-08-22T12:24:18.886Z,30.90
2018-08-22T12:26:47.254Z,30.80
2018-08-22T12:29:15.731Z,30.60
2018-08-22T12:31:44.051Z,30.60
2018-08-22T12:34:13.629Z,30.60
2018-08-22T12:36:42.058Z,30.70
2018-08-22T12:39:11.021Z,30.70
2018-08-22T12:41:39.661Z,30.70
2018-08-22T12:44:08.144Z,30.80
2018-08-22T12:46:36.728Z,31.00
2018-08-22T12:49:05.426Z,31.20
2018-08-22T12:51:34.082Z,31.40
2018-08-22T12:54:03.008Z,31.60
2018-08-22T12:56:31.430Z,31.90
2018-08-22T12:58:59.611Z,32.10
2018-08-22T13:01:28.797Z,32.30
2018-08-22T13:03:57.342Z,32.20
2018-08-22T13:06:25.784Z,31.90
2018-08-22T13:08:54.054Z,31.60
2018-08-22T13:11:22.335Z,31.80
2018-08-22T13:13:50.522Z,32.10
2018-08-22T13:16:18.762Z,32.20
2018-08-22T13:18:46.976Z,32.20
2018-08-22T13:21:15.175Z,32.40
2018-08-22T13:23:43.394Z,32.40
2018-08-22T13:26:11.584Z,32.40
2018-08-22T13:28:39.790Z,32.30
2018-08-22T13:31:08.226Z,32.20
2018-08-22T13:33:36.472Z,32.10
2018-08-22T13:36:05.310Z,32.10
2018-08-22T13:38:34.228Z,32.30
2018-08-22T13:41:02.501Z,32.40
2018-08-22T13:43:30.731Z,32.70
2018-08-22T13:45:58.915Z,33.80
2018-08-22T13:48:27.147Z,35.20
2018-08-22T13:50:55.437Z,36.40
2018-08-22T13:53:23.800Z,37.50
2018-08-22T13:55:52.000Z,38.10
2018-08-22T13:58:20.245Z,38.60
2018-08-22T14:00:48.460Z,39.00
2018-08-22T14:03:16.690Z,39.10
2018-08-22T14:05:44.888Z,39.50
2018-08-22T14:08:13.179Z,38.60
2018-08-22T14:10:41.463Z,38.60
2018-08-22T14:13:09.671Z,37.50
2018-08-22T14:15:37.923Z,36.40
2018-08-22T14:18:05.939Z,35.80
2018-08-22T14:20:34.130Z,36.00
2018-08-22T14:23:02.342Z,37.80
2018-08-22T14:25:30.887Z,39.70
2018-08-22T14:27:59.924Z,41.20
2018-08-22T14:30:28.121Z,42.30
2018-08-22T14:32:56.361Z,43.30
2018-08-22T14:35:24.600Z,42.90
2018-08-22T14:37:52.838Z,42.90
2018-08-22T14:40:21.239Z,43.20
2018-08-22T14:42:49.460Z,43.60
2018-08-22T14:45:17.662Z,44.00
2018-08-22T14:47:45.921Z,44.20
2018-08-22T14:50:14.156Z,44.10
2018-08-22T14:52:42.356Z,44.00
2018-08-22T14:55:10.654Z,44.00
2018-08-22T14:57:38.941Z,44.40
2018-08-22T15:00:07.583Z,44.60
2018-08-22T15:02:35.915Z,44.80
2018-08-22T15:05:03.998Z,44.80
2018-08-22T15:07:32.199Z,44.80
2018-08-22T15:10:00.498Z,44.60
2018-08-22T15:12:28.747Z,44.60
2018-08-22T15:14:56.960Z,44.50
2018-08-22T15:17:31.827Z,44.60
2018-08-22T15:20:00.045Z,44.80
2018-08-22T15:22:28.272Z,44.50
2018-08-22T15:24:56.580Z,44.30
2018-08-22T15:27:24.807Z,44.40
2018-08-22T15:29:53.080Z,44.50
2018-08-22T15:32:21.280Z,44.50
2018-08-22T15:34:52.970Z,44.40
2018-08-22T15:37:21.586Z,44.20
2018-08-22T15:39:49.790Z,43.80
2018-08-22T15:42:18.024Z,43.80
2018-08-22T15:44:46.222Z,43.80
2018-08-22T15:47:14.501Z,43.40
2018-08-22T15:49:43.273Z,43.30
2018-08-22T15:52:11.511Z,43.10
2018-08-22T15:54:39.735Z,42.30
2018-08-22T15:57:07.990Z,41.10
2018-08-22T15:59:36.255Z,39.80
2018-08-22T16:02:04.503Z,38.50
2018-08-22T16:04:56.891Z,37.60
2018-08-22T16:07:25.120Z,36.70
2018-08-22T16:09:53.430Z,36.40
2018-08-22T16:12:21.648Z,36.60
2018-08-22T16:14:49.867Z,36.60
2018-08-22T16:17:18.106Z,36.40
2018-08-22T16:19:46.320Z,36.30
2018-08-22T16:22:14.558Z,36.10
2018-08-22T16:24:42.940Z,35.50
2018-08-22T16:27:11.395Z,35.00
2018-08-22T16:29:39.619Z,34.60
2018-08-22T16:32:07.851Z,34.20
2018-08-22T16:34:36.066Z,33.90
2018-08-22T16:37:04.274Z,33.60
2018-08-22T16:39:40.667Z,33.50
2018-08-22T16:42:09.216Z,33.20
2018-08-22T16:44:38.739Z,32.90
2018-08-22T16:47:07.107Z,32.60
2018-08-22T16:49:35.622Z,32.50
2018-08-22T16:52:04.129Z,32.40
2018-08-22T16:54:32.835Z,32.20
2018-08-22T16:57:01.062Z,32.10
2018-08-22T16:59:29.304Z,32.10
2018-08-22T17:01:57.705Z,32.20
2018-08-22T17:04:26.204Z,32.30
2018-08-22T17:06:54.783Z,32.00
2018-08-22T17:09:23.334Z,31.80
2018-08-22T17:11:51.538Z,31.60
2018-08-22T17:14:19.727Z,31.40
2018-08-22T17:16:47.950Z,31.20
2018-08-22T17:19:16.742Z,31.00
2018-08-22T17:21:44.991Z,30.90
2018-08-22T17:24:13.379Z,30.90
2018-08-22T17:26:41.589Z,30.80
2018-08-22T17:29:10.008Z,30.60
2018-08-22T17:31:38.213Z,30.40
2018-08-22T17:34:06.464Z,30.30
2018-08-22T17:36:34.694Z,30.20
2018-08-22T17:39:03.223Z,30.00
2018-08-22T17:41:31.426Z,30.30
2018-08-22T17:44:03.154Z,30.70
2018-08-22T17:46:32.764Z,30.90
2018-08-22T17:49:01.005Z,31.00
2018-08-22T17:51:29.239Z,30.60
2018-08-22T17:53:57.467Z,30.20
2018-08-22T17:56:26.790Z,29.80
2018-08-22T17:58:55.989Z,29.50
2018-08-22T18:01:24.596Z,29.20
2018-08-22T18:03:55.390Z,29.00
2018-08-22T18:06:23.681Z,28.80
2018-08-22T18:08:51.870Z,28.60
2018-08-22T18:11:20.347Z,28.50
2018-08-22T18:13:48.792Z,28.40
2018-08-22T18:16:16.967Z,28.20
2018-08-22T18:18:45.419Z,28.10
2018-08-22T18:21:13.639Z,27.90
2018-08-22T18:23:47.067Z,27.80
2018-08-22T18:26:16.343Z,27.80
2018-08-22T18:28:44.723Z,27.60
2018-08-22T18:31:12.919Z,27.40
2018-08-22T18:33:54.927Z,27.30
2018-08-22T18:36:23.757Z,27.10
2018-08-22T18:39:23.670Z,27.00
2018-08-22T18:41:51.891Z,27.00
2018-08-22T18:44:20.146Z,26.80
2018-08-22T18:46:48.482Z,26.70
2018-08-22T18:49:16.658Z,26.60
2018-08-22T18:51:46.425Z,26.60
2018-08-22T18:54:14.611Z,26.60
2018-08-22T18:56:42.815Z,26.50
2018-08-22T18:59:21.795Z,26.50
2018-08-22T19:01:50.224Z,26.40
2018-08-22T19:04:18.571Z,26.40
2018-08-22T19:06:46.771Z,26.40
2018-08-22T19:09:15.048Z,26.30
2018-08-22T19:11:43.275Z,26.30
2018-08-22T19:14:12.047Z,26.20
2018-08-22T19:16:40.855Z,26.30
2018-08-22T19:19:10.048Z,26.20
2018-08-22T19:21:38.656Z,26.20
2018-08-22T19:24:09.068Z,26.10
2018-08-22T19:26:37.339Z,26.00
2018-08-22T19:29:07.162Z,25.90
2018-08-22T19:31:39.246Z,25.80
2018-08-22T19:34:08.363Z,25.80
2018-08-22T19:36:37.871Z,25.70
2018-08-22T19:39:07.760Z,25.80
2018-08-22T19:41:36.703Z,25.70
2018-08-22T19:44:06.974Z,25.60
2018-08-22T19:46:37.518Z,25.60
2018-08-22T19:49:06.239Z,25.40
2018-08-22T19:51:34.992Z,25.40
2018-08-22T19:54:05.496Z,25.30
2018-08-22T19:56:34.706Z,25.30
2018-08-22T19:59:04.272Z,25.20
2018-08-22T20:01:34.698Z,25.10
2018-08-22T20:04:03.865Z,25.20
2018-08-22T20:06:32.417Z,25.10
2018-08-22T20:09:01.993Z,25.10
2018-08-22T20:11:32.480Z,25.00
2018-08-22T20:14:03.085Z,24.90
2018-08-22T20:16:31.453Z,24.90
2018-08-22T20:19:00.907Z,24.90
2018-08-22T20:21:30.950Z,24.80
2018-08-22T20:23:59.615Z,24.80
2018-08-22T20:26:28.328Z,24.70
2018-08-22T20:28:57.787Z,24.70
2018-08-22T20:31:26.061Z,24.60
2018-08-22T20:34:02.957Z,24.60
2018-08-22T20:36:31.670Z,24.50
2018-08-22T20:39:02.985Z,24.50
2018-08-22T20:41:31.226Z,24.40
2018-08-22T20:43:59.463Z,24.30
2018-08-22T20:46:27.701Z,24.30
2018-08-22T20:48:55.943Z,24.30
2018-08-22T20:51:24.163Z,24.20
2018-08-22T20:53:56.654Z,24.20
2018-08-22T20:56:24.872Z,24.10
2018-08-22T20:58:53.089Z,24.00
2018-08-22T21:01:21.353Z,24.00
2018-08-22T21:03:50.481Z,23.90
2018-08-22T21:06:18.696Z,23.90
2018-08-22T21:08:46.975Z,23.80
2018-08-22T21:11:15.165Z,23.80
2018-08-22T21:13:43.447Z,23.70
2018-08-22T21:16:11.617Z,23.70
2018-08-22T21:18:39.910Z,23.70
2018-08-22T21:21:38.799Z,23.60
2018-08-22T21:24:07.014Z,23.60
2018-08-22T21:26:39.640Z,23.60
2018-08-22T21:29:07.911Z,23.50
2018-08-22T21:31:36.527Z,23.50
2018-08-22T21:34:13.044Z,23.40
2018-08-22T21:36:43.233Z,23.40
2018-08-22T21:39:16.749Z,23.30
2018-08-22T21:41:45.820Z,23.30
2018-08-22T21:44:16.491Z,23.20
2018-08-22T21:46:44.699Z,23.20
2018-08-22T21:49:14.983Z,23.20
2018-08-22T21:51:43.658Z,23.10
2018-08-22T21:54:12.656Z,23.10
2018-08-22T21:56:41.251Z,23.10
2018-08-22T21:59:10.280Z,23.10
2018-08-22T22:02:11.763Z,23.10
2018-08-22T22:04:41.224Z,23.00
2018-08-22T22:07:10.692Z,23.00
2018-08-22T22:09:39.571Z,22.90
2018-08-22T22:12:13.230Z,22.80
2018-08-22T22:14:43.540Z,22.80
2018-08-22T22:17:11.768Z,22.70
2018-08-22T22:19:40.124Z,22.70
2018-08-22T22:22:08.368Z,22.60
2018-08-22T22:24:57.275Z,22.60
2018-08-22T22:27:26.047Z,22.60
2018-08-22T22:30:01.657Z,22.50
2018-08-22T22:32:30.120Z,22.40
2018-08-22T22:34:58.357Z,22.40
2018-08-22T22:37:26.667Z,22.40
2018-08-22T22:39:54.898Z,22.30
2018-08-22T22:42:26.121Z,22.30
2018-08-22T22:44:55.223Z,22.20
2018-08-22T22:52:24.131Z,22.20
2018-08-22T22:54:54.679Z,22.00
2018-08-22T22:57:22.943Z,21.90
2018-08-22T22:59:51.700Z,21.90
2018-08-22T23:02:23.347Z,21.90
2018-08-22T23:04:52.479Z,21.90
2018-08-22T23:07:26.872Z,21.90
2018-08-22T23:09:56.317Z,21.90
2018-08-22T23:12:40.471Z,21.80
2018-08-22T23:15:09.936Z,21.70
2018-08-22T23:17:38.455Z,21.70
2018-08-22T23:20:15.691Z,21.60
2018-08-22T23:22:43.904Z,21.60
2018-08-22T23:25:12.143Z,21.60
2018-08-22T23:27:40.879Z,21.60
2018-08-22T23:30:09.350Z,21.50
2018-08-22T23:32:38.330Z,21.50
2018-08-22T23:35:20.145Z,21.40
2018-08-22T23:37:51.884Z,21.40
2018-08-22T23:40:20.907Z,21.30
2018-08-22T23:42:49.120Z,21.30
2018-08-22T23:45:17.503Z,21.20
2018-08-22T23:47:45.709Z,21.20
2018-08-22T23:50:14.328Z,21.20
2018-08-22T23:52:54.511Z,21.10
2018-08-22T23:55:23.583Z,21.10
2018-08-22T23:57:55.519Z,21.10
